createdAt,value
2023-01-13T08:09:45.327Z,96759.31
2023-01-13T08:14:50.157Z,96772.19
2023-01-13T08:19:53.226Z,96773.06
2023-01-13T08:24:57.462Z,96770.69
2023-01-13T08:30:00.313Z,96781.31
2023-01-13T08:35:03.179Z,96796.34
2023-01-13T08:40:09.347Z,96802.34
2023-01-13T08:45:12.558Z,96811.59
2023-01-13T08:50:15.672Z,96817.09
2023-01-13T08:55:19.926Z,96828.22
2023-01-13T09:00:23.165Z,96833.13
2023-01-13T09:05:26.158Z,96842.38
2023-01-13T09:10:30.395Z,96843.75
2023-01-13T09:15:33.295Z,96844.28
2023-01-13T09:20:36.183Z,96839.44
2023-01-13T09:25:40.761Z,96846.22
2023-01-13T09:30:43.666Z,96851.91
2023-01-13T09:35:47.016Z,96863.59
2023-01-13T09:40:51.434Z,96868.44
2023-01-13T09:45:57.705Z,96868.72
2023-01-13T09:51:04.662Z,96860.31
2023-01-13T09:56:10.506Z,96848.63
2023-01-13T10:01:20.964Z,96843.47
2023-01-13T10:06:29.367Z,96848.13
2023-01-13T10:11:54.631Z,96850.00
2023-01-13T10:17:05.177Z,96835.84
2023-01-13T10:22:26.408Z,96838.34
2023-01-13T10:27:34.473Z,96835.63
2023-01-13T10:32:37.337Z,96841.31
2023-01-13T10:37:40.129Z,96836.97
2023-01-13T10:42:44.411Z,96828.00
2023-01-13T10:48:05.627Z,96829.09
2023-01-13T10:53:18.719Z,96831.53
2023-01-13T10:58:22.892Z,96830.44
2023-01-13T11:03:26.087Z,96832.31
2023-01-13T11:08:30.557Z,96819.25
2023-01-13T11:13:37.153Z,96805.44
2023-01-13T11:18:51.551Z,96810.06
2023-01-13T11:24:03.366Z,96811.97
2023-01-13T11:29:13.769Z,96805.75
2023-01-13T11:34:25.920Z,96803.56
2023-01-13T11:39:36.037Z,96804.13
2023-01-13T11:44:42.756Z,96815.25
2023-01-13T11:49:48.542Z,96819.06
2023-01-13T11:55:04.223Z,96836.44
2023-01-13T12:00:29.903Z,96837.81
2023-01-13T12:05:37.991Z,96843.75
2023-01-13T12:10:58.968Z,96836.97
2023-01-13T12:16:11.024Z,96820.13
2023-01-13T12:21:20.908Z,96816.34
2023-01-13T12:26:24.330Z,96834.47
2023-01-13T12:31:29.097Z,96836.66
2023-01-13T12:36:38.598Z,96840.13
2023-01-13T12:41:58.674Z,96824.44
2023-01-13T12:47:02.880Z,96819.53
2023-01-13T12:52:23.607Z,96824.13
2023-01-13T12:57:27.896Z,96830.66
2023-01-13T13:02:34.783Z,96847.19
2023-01-13T13:07:41.742Z,96840.16
2023-01-13T13:13:11.491Z,96836.88
2023-01-13T13:18:29.739Z,96834.53
2023-01-13T13:24:03.909Z,96820.16
2023-01-13T13:29:16.647Z,96804.16
2023-01-13T13:34:27.975Z,96809.03
2023-01-13T13:39:49.628Z,96799.50
2023-01-13T13:45:10.191Z,96811.72
2023-01-13T13:50:16.465Z,96795.16
2023-01-13T13:55:21.381Z,96799.22
2023-01-13T14:00:26.772Z,96796.00
2023-01-13T14:05:32.032Z,96785.66
2023-01-13T14:10:44.845Z,96793.22
2023-01-13T14:15:48.445Z,96803.53
2023-01-13T14:20:59.253Z,96806.00
2023-01-13T14:26:04.270Z,96810.81
2023-01-13T14:31:09.001Z,96820.09
2023-01-13T14:36:16.650Z,96830.44
2023-01-13T14:41:23.016Z,96836.13
2023-01-13T14:46:26.359Z,96853.50
2023-01-13T14:51:31.377Z,96851.34
2023-01-13T14:56:47.300Z,96868.44
2023-01-13T15:01:50.223Z,96874.72
2023-01-13T15:06:56.980Z,96871.69
2023-01-13T15:12:00.595Z,96876.03
2023-01-13T15:17:03.621Z,96886.91
2023-01-13T15:22:07.836Z,96889.66
2023-01-13T15:27:19.176Z,96904.84
2023-01-13T15:32:22.892Z,96909.72
2023-01-13T15:37:27.087Z,96908.63
2023-01-13T15:42:47.387Z,96923.88
2023-01-13T15:47:50.193Z,96935.78
2023-01-13T15:52:54.484Z,96940.44
2023-01-13T15:57:57.460Z,96939.59
2023-01-13T16:03:00.685Z,96942.28
2023-01-13T16:08:08.027Z,96953.69
2023-01-13T16:13:11.492Z,96958.28
2023-01-13T16:18:18.338Z,96973.97
2023-01-13T16:23:23.423Z,96969.91
2023-01-13T16:28:28.203Z,96983.50
2023-01-13T16:33:31.044Z,96998.13
2023-01-13T16:38:36.785Z,97006.25
2023-01-13T16:43:39.586Z,97012.44
2023-01-13T16:48:42.393Z,97044.47
2023-01-13T16:53:46.637Z,97068.31
2023-01-13T16:58:49.624Z,97063.59
2023-01-13T17:03:52.966Z,97066.53
2023-01-13T17:09:01.370Z,97066.78
2023-01-13T17:14:18.265Z,97081.13
2023-01-13T17:19:22.336Z,97087.31
2023-01-13T17:24:28.767Z,97093.00
2023-01-13T17:29:32.812Z,97082.94
2023-01-13T17:34:35.627Z,97081.31
2023-01-13T17:39:39.803Z,97078.56
2023-01-13T17:44:43.050Z,97079.88
2023-01-13T17:49:46.073Z,97084.22
2023-01-13T17:54:50.269Z,97095.28
2023-01-13T17:59:54.341Z,97096.34
2023-01-13T18:04:57.127Z,97100.66
2023-01-13T18:10:01.301Z,97106.56
2023-01-13T18:15:04.291Z,97102.47
2023-01-13T18:20:24.745Z,97114.63
2023-01-13T18:25:46.598Z,97109.13
2023-01-13T18:30:49.443Z,97114.25
2023-01-13T18:35:52.428Z,97103.38
2023-01-13T18:40:56.556Z,97107.09
2023-01-13T18:46:00.847Z,97113.81
2023-01-13T18:51:03.930Z,97122.19
2023-01-13T18:56:12.065Z,97123.50
2023-01-13T19:01:15.092Z,97129.13
2023-01-13T19:06:19.028Z,97131.25
2023-01-13T19:11:24.163Z,97149.91
2023-01-13T19:16:27.004Z,97146.66
2023-01-13T19:21:29.894Z,97154.19
2023-01-13T19:26:34.107Z,97164.97
2023-01-13T19:31:36.919Z,97166.56
2023-01-13T19:36:39.970Z,97163.78
2023-01-13T19:42:01.514Z,97178.38
2023-01-13T19:47:04.662Z,97175.09
2023-01-13T19:52:07.519Z,97174.78
2023-01-13T19:57:11.740Z,97172.34
2023-01-13T20:02:17.160Z,97188.25
2023-01-13T20:07:20.038Z,97189.91
2023-01-13T20:12:24.506Z,97185.75
2023-01-13T20:17:29.064Z,97185.75
2023-01-13T20:22:32.504Z,97190.34
2023-01-13T20:27:36.951Z,97174.28
2023-01-13T20:32:39.832Z,97177.47
2023-01-13T20:37:43.961Z,97199.63
2023-01-13T20:42:48.836Z,97207.97
2023-01-13T20:47:52.776Z,97199.63
2023-01-13T20:53:13.947Z,97197.16
2023-01-13T20:58:18.117Z,97215.19
2023-01-13T21:03:20.911Z,97206.50
2023-01-13T21:08:23.696Z,97195.69
2023-01-13T21:13:45.360Z,97177.53
2023-01-13T21:19:10.760Z,97181.78
2023-01-13T21:24:14.042Z,97194.47
2023-01-13T21:29:18.219Z,97193.66
2023-01-13T21:34:21.114Z,97196.63
2023-01-13T21:39:23.971Z,97213.09
2023-01-13T21:44:45.787Z,97218.16
2023-01-13T21:49:51.428Z,97236.31
2023-01-13T21:55:12.015Z,97231.13
2023-01-13T22:00:18.705Z,97230.53
2023-01-13T22:05:22.658Z,97228.91
2023-01-13T22:10:28.311Z,97231.88
2023-01-13T22:15:33.960Z,97234.00
2023-01-13T22:20:36.799Z,97246.72
2023-01-13T22:25:40.444Z,97243.19
2023-01-13T22:30:45.304Z,97261.25
2023-01-13T22:35:55.229Z,97266.94
2023-01-13T22:40:58.854Z,97263.66
2023-01-13T22:46:06.231Z,97265.78
2023-01-13T22:51:10.890Z,97259.81
2023-01-13T22:56:17.849Z,97259.22
2023-01-13T23:01:22.325Z,97246.53
2023-01-13T23:06:26.611Z,97237.59
2023-01-13T23:11:30.838Z,97233.25
2023-01-13T23:16:36.662Z,97224.59
2023-01-13T23:21:39.757Z,97222.44
2023-01-13T23:26:42.601Z,97213.28
2023-01-13T23:31:46.773Z,97213.59
2023-01-13T23:36:49.641Z,97215.25
2023-01-13T23:41:52.648Z,97222.28
2023-01-13T23:46:56.787Z,97209.34
2023-01-13T23:51:59.853Z,97209.59
2023-01-13T23:57:02.659Z,97211.47
